sensor_id;sensor_type;location;lat;lon;timestamp;P1;durP1;ratioP1;P2;durP2;ratioP2
6667;SDS011;3370;47.712;9.082;2023-04-24T00:00:01;4.53;;;1.40;;
6667;SDS011;3370;47.712;9.082;2023-04-24T00:02:31;1.35;;;1.25;;
6667;SDS011;3370;47.712;9.082;2023-04-24T00:04:58;2.00;;;1.38;;
6667;SDS011;3370;47.712;9.082;2023-04-24T00:07:27;1.53;;;1.33;;
6667;SDS011;3370;47.712;9.082;2023-04-24T00:09:52;1.17;;;1.17;;
6667;SDS011;3370;47.712;9.082;2023-04-24T00:12:18;1.30;;;1.30;;
6667;SDS011;3370;47.712;9.082;2023-04-24T00:14:44;1.30;;;1.30;;
6667;SDS011;3370;47.712;9.082;2023-04-24T00:17:10;2.50;;;1.43;;
6667;SDS011;3370;47.712;9.082;2023-04-24T00:19:36;2.00;;;1.20;;
6667;SDS011;3370;47.712;9.082;2023-04-24T00:22:02;2.73;;;1.90;;
6667;SDS011;3370;47.712;9.082;2023-04-24T00:24:28;2.90;;;1.40;;
6667;SDS011;3370;47.712;9.082;2023-04-24T00:26:54;1.90;;;1.33;;
6667;SDS011;3370;47.712;9.082;2023-04-24T00:29:20;5.80;;;2.73;;
6667;SDS011;3370;47.712;9.082;2023-04-24T00:31:45;4.23;;;1.20;;
6667;SDS011;3370;47.712;9.082;2023-04-24T00:34:11;1.83;;;1.73;;
6667;SDS011;3370;47.712;9.082;2023-04-24T00:36:37;1.52;;;1.40;;
6667;SDS011;3370;47.712;9.082;2023-04-24T00:39:03;2.40;;;1.40;;
6667;SDS011;3370;47.712;9.082;2023-04-24T00:41:29;1.50;;;1.40;;
6667;SDS011;3370;47.712;9.082;2023-04-24T00:43:55;1.70;;;1.60;;
6667;SDS011;3370;47.712;9.082;2023-04-24T00:46:21;1.70;;;1.50;;
6667;SDS011;3370;47.712;9.082;2023-04-24T00:48:47;1.67;;;1.57;;
6667;SDS011;3370;47.712;9.082;2023-04-24T00:51:12;1.33;;;1.33;;
6667;SDS011;3370;47.712;9.082;2023-04-24T00:53:38;1.87;;;1.77;;
6667;SDS011;3370;47.712;9.082;2023-04-24T00:56:04;1.40;;;1.40;;
6667;SDS011;3370;47.712;9.082;2023-04-24T00:58:30;1.30;;;1.20;;
6667;SDS011;3370;47.712;9.082;2023-04-24T01:00:57;1.77;;;1.43;;
6667;SDS011;3370;47.712;9.082;2023-04-24T01:03:26;1.73;;;1.67;;
6667;SDS011;3370;47.712;9.082;2023-04-24T01:05:56;3.30;;;1.80;;
6667;SDS011;3370;47.712;9.082;2023-04-24T01:08:23;1.87;;;1.77;;
6667;SDS011;3370;47.712;9.082;2023-04-24T01:10:51;7.00;;;1.70;;
6667;SDS011;3370;47.712;9.082;2023-04-24T01:13:20;3.77;;;1.63;;
6667;SDS011;3370;47.712;9.082;2023-04-24T01:15:46;1.50;;;1.40;;
6667;SDS011;3370;47.712;9.082;2023-04-24T01:18:13;1.40;;;1.40;;
6667;SDS011;3370;47.712;9.082;2023-04-24T01:20:40;1.90;;;1.43;;
6667;SDS011;3370;47.712;9.082;2023-04-24T01:23:09;1.50;;;1.40;;
6667;SDS011;3370;47.712;9.082;2023-04-24T01:25:35;1.48;;;1.30;;
6667;SDS011;3370;47.712;9.082;2023-04-24T01:28:02;1.20;;;1.20;;
6667;SDS011;3370;47.712;9.082;2023-04-24T01:30:28;0.90;;;0.90;;
6667;SDS011;3370;47.712;9.082;2023-04-24T01:32:55;1.40;;;1.40;;
6667;SDS011;3370;47.712;9.082;2023-04-24T01:35:21;1.23;;;1.23;;
6667;SDS011;3370;47.712;9.082;2023-04-24T01:37:46;1.20;;;1.20;;
6667;SDS011;3370;47.712;9.082;2023-04-24T01:40:12;4.75;;;1.02;;
6667;SDS011;3370;47.712;9.082;2023-04-24T01:42:38;2.20;;;1.10;;
6667;SDS011;3370;47.712;9.082;2023-04-24T01:45:07;1.53;;;1.10;;
6667;SDS011;3370;47.712;9.082;2023-04-24T01:47:37;0.90;;;0.90;;
6667;SDS011;3370;47.712;9.082;2023-04-24T01:50:03;0.93;;;0.93;;
6667;SDS011;3370;47.712;9.082;2023-04-24T01:52:30;1.13;;;0.90;;
6667;SDS011;3370;47.712;9.082;2023-04-24T01:55:04;1.00;;;1.00;;
6667;SDS011;3370;47.712;9.082;2023-04-24T01:57:32;1.23;;;1.23;;
6667;SDS011;3370;47.712;9.082;2023-04-24T01:59:58;1.10;;;1.10;;
6667;SDS011;3370;47.712;9.082;2023-04-24T02:02:24;2.00;;;1.00;;
6667;SDS011;3370;47.712;9.082;2023-04-24T02:04:53;1.30;;;1.30;;
6667;SDS011;3370;47.712;9.082;2023-04-24T02:07:19;0.90;;;0.70;;
6667;SDS011;3370;47.712;9.082;2023-04-24T02:09:45;1.00;;;1.00;;
6667;SDS011;3370;47.712;9.082;2023-04-24T02:12:11;1.10;;;0.77;;
6667;SDS011;3370;47.712;9.082;2023-04-24T02:14:37;1.30;;;1.00;;
6667;SDS011;3370;47.712;9.082;2023-04-24T02:17:03;1.48;;;0.95;;
6667;SDS011;3370;47.712;9.082;2023-04-24T02:19:29;0.90;;;0.90;;
6667;SDS011;3370;47.712;9.082;2023-04-24T02:21:55;0.90;;;0.90;;
6667;SDS011;3370;47.712;9.082;2023-04-24T02:24:21;1.07;;;1.07;;
6667;SDS011;3370;47.712;9.082;2023-04-24T02:26:47;0.90;;;0.90;;
6667;SDS011;3370;47.712;9.082;2023-04-24T02:29:13;1.73;;;1.27;;
6667;SDS011;3370;47.712;9.082;2023-04-24T02:31:39;1.03;;;1.03;;
6667;SDS011;3370;47.712;9.082;2023-04-24T02:34:05;0.90;;;0.90;;
6667;SDS011;3370;47.712;9.082;2023-04-24T02:36:31;1.10;;;1.10;;
6667;SDS011;3370;47.712;9.082;2023-04-24T02:38:58;2.67;;;1.17;;
6667;SDS011;3370;47.712;9.082;2023-04-24T02:41:24;1.37;;;1.00;;
6667;SDS011;3370;47.712;9.082;2023-04-24T02:43:50;1.13;;;1.03;;
6667;SDS011;3370;47.712;9.082;2023-04-24T02:46:15;1.03;;;1.03;;
6667;SDS011;3370;47.712;9.082;2023-04-24T02:48:41;0.77;;;0.77;;
6667;SDS011;3370;47.712;9.082;2023-04-24T02:51:07;0.80;;;0.80;;
6667;SDS011;3370;47.712;9.082;2023-04-24T02:53:33;0.63;;;0.60;;
6667;SDS011;3370;47.712;9.082;2023-04-24T02:55:58;1.00;;;1.00;;
6667;SDS011;3370;47.712;9.082;2023-04-24T02:58:24;0.88;;;0.85;;
6667;SDS011;3370;47.712;9.082;2023-04-24T03:00:54;1.00;;;0.90;;
6667;SDS011;3370;47.712;9.082;2023-04-24T03:03:21;0.83;;;0.83;;
6667;SDS011;3370;47.712;9.082;2023-04-24T03:05:47;1.10;;;1.00;;
6667;SDS011;3370;47.712;9.082;2023-04-24T03:08:13;1.53;;;1.03;;
6667;SDS011;3370;47.712;9.082;2023-04-24T03:10:39;0.80;;;0.80;;
6667;SDS011;3370;47.712;9.082;2023-04-24T03:13:05;1.20;;;1.20;;
6667;SDS011;3370;47.712;9.082;2023-04-24T03:15:31;1.47;;;0.90;;
6667;SDS011;3370;47.712;9.082;2023-04-24T03:17:56;1.00;;;1.00;;
6667;SDS011;3370;47.712;9.082;2023-04-24T03:20:22;0.90;;;0.80;;
6667;SDS011;3370;47.712;9.082;2023-04-24T03:22:48;2.10;;;1.07;;
6667;SDS011;3370;47.712;9.082;2023-04-24T03:25:14;1.27;;;0.90;;
6667;SDS011;3370;47.712;9.082;2023-04-24T03:27:40;0.80;;;0.80;;
6667;SDS011;3370;47.712;9.082;2023-04-24T03:30:06;0.93;;;0.93;;
6667;SDS011;3370;47.712;9.082;2023-04-24T03:32:33;1.10;;;1.00;;
6667;SDS011;3370;47.712;9.082;2023-04-24T03:34:59;1.00;;;1.00;;
6667;SDS011;3370;47.712;9.082;2023-04-24T03:37:24;0.90;;;0.90;;
6667;SDS011;3370;47.712;9.082;2023-04-24T03:39:51;1.23;;;0.63;;
6667;SDS011;3370;47.712;9.082;2023-04-24T03:42:17;0.77;;;0.77;;
6667;SDS011;3370;47.712;9.082;2023-04-24T03:44:43;0.77;;;0.77;;
6667;SDS011;3370;47.712;9.082;2023-04-24T03:47:09;0.93;;;0.93;;
6667;SDS011;3370;47.712;9.082;2023-04-24T03:49:34;1.20;;;1.10;;
6667;SDS011;3370;47.712;9.082;2023-04-24T03:52:00;3.63;;;0.80;;
6667;SDS011;3370;47.712;9.082;2023-04-24T03:54:26;4.00;;;0.90;;
6667;SDS011;3370;47.712;9.082;2023-04-24T03:56:52;0.80;;;0.80;;
6667;SDS011;3370;47.712;9.082;2023-04-24T03:59:18;0.70;;;0.70;;
6667;SDS011;3370;47.712;9.082;2023-04-24T04:01:44;0.80;;;0.77;;
6667;SDS011;3370;47.712;9.082;2023-04-24T04:04:10;1.10;;;0.60;;
6667;SDS011;3370;47.712;9.082;2023-04-24T04:06:36;0.70;;;0.70;;
6667;SDS011;3370;47.712;9.082;2023-04-24T04:09:02;0.87;;;0.87;;
6667;SDS011;3370;47.712;9.082;2023-04-24T04:11:28;1.15;;;0.70;;
6667;SDS011;3370;47.712;9.082;2023-04-24T04:13:54;0.70;;;0.70;;
6667;SDS011;3370;47.712;9.082;2023-04-24T04:16:21;0.73;;;0.73;;
6667;SDS011;3370;47.712;9.082;2023-04-24T04:18:48;1.53;;;0.93;;
6667;SDS011;3370;47.712;9.082;2023-04-24T04:21:13;1.43;;;0.90;;
6667;SDS011;3370;47.712;9.082;2023-04-24T04:23:39;0.70;;;0.70;;
6667;SDS011;3370;47.712;9.082;2023-04-24T04:26:05;0.70;;;0.70;;
6667;SDS011;3370;47.712;9.082;2023-04-24T04:28:31;0.60;;;0.60;;
6667;SDS011;3370;47.712;9.082;2023-04-24T04:30:57;0.90;;;0.73;;
6667;SDS011;3370;47.712;9.082;2023-04-24T04:33:26;0.80;;;0.80;;
6667;SDS011;3370;47.712;9.082;2023-04-24T04:35:52;0.83;;;0.80;;
6667;SDS011;3370;47.712;9.082;2023-04-24T04:38:18;0.80;;;0.70;;
6667;SDS011;3370;47.712;9.082;2023-04-24T04:40:45;0.80;;;0.80;;
6667;SDS011;3370;47.712;9.082;2023-04-24T04:43:14;1.00;;;0.73;;
6667;SDS011;3370;47.712;9.082;2023-04-24T04:45:41;0.70;;;0.70;;
6667;SDS011;3370;47.712;9.082;2023-04-24T04:48:08;0.80;;;0.80;;
6667;SDS011;3370;47.712;9.082;2023-04-24T04:50:37;0.60;;;0.60;;
6667;SDS011;3370;47.712;9.082;2023-04-24T04:53:03;1.67;;;0.80;;
6667;SDS011;3370;47.712;9.082;2023-04-24T04:55:30;0.70;;;0.70;;
6667;SDS011;3370;47.712;9.082;2023-04-24T04:57:56;0.70;;;0.70;;
6667;SDS011;3370;47.712;9.082;2023-04-24T05:00:22;0.70;;;0.70;;
6667;SDS011;3370;47.712;9.082;2023-04-24T05:02:51;1.00;;;1.00;;
6667;SDS011;3370;47.712;9.082;2023-04-24T05:05:17;0.60;;;0.60;;
6667;SDS011;3370;47.712;9.082;2023-04-24T05:07:43;0.67;;;0.67;;
6667;SDS011;3370;47.712;9.082;2023-04-24T05:10:09;0.97;;;0.77;;
6667;SDS011;3370;47.712;9.082;2023-04-24T05:12:35;0.70;;;0.70;;
6667;SDS011;3370;47.712;9.082;2023-04-24T05:15:01;0.90;;;0.90;;
6667;SDS011;3370;47.712;9.082;2023-04-24T05:17:28;1.33;;;1.23;;
6667;SDS011;3370;47.712;9.082;2023-04-24T05:19:54;0.83;;;0.83;;
6667;SDS011;3370;47.712;9.082;2023-04-24T05:22:20;2.87;;;1.20;;
6667;SDS011;3370;47.712;9.082;2023-04-24T05:24:46;0.90;;;0.90;;
6667;SDS011;3370;47.712;9.082;2023-04-24T05:27:12;0.80;;;0.80;;
6667;SDS011;3370;47.712;9.082;2023-04-24T05:29:38;0.90;;;0.90;;
6667;SDS011;3370;47.712;9.082;2023-04-24T05:32:05;0.90;;;0.90;;
6667;SDS011;3370;47.712;9.082;2023-04-24T05:34:30;1.47;;;0.90;;
6667;SDS011;3370;47.712;9.082;2023-04-24T05:36:56;0.70;;;0.70;;
6667;SDS011;3370;47.712;9.082;2023-04-24T05:39:22;0.80;;;0.80;;
6667;SDS011;3370;47.712;9.082;2023-04-24T05:41:50;1.30;;;1.20;;
6667;SDS011;3370;47.712;9.082;2023-04-24T05:44:16;1.00;;;1.00;;
6667;SDS011;3370;47.712;9.082;2023-04-24T05:46:42;1.00;;;1.00;;
6667;SDS011;3370;47.712;9.082;2023-04-24T05:49:07;1.23;;;1.10;;
6667;SDS011;3370;47.712;9.082;2023-04-24T05:51:33;1.00;;;1.00;;
6667;SDS011;3370;47.712;9.082;2023-04-24T05:53:59;1.37;;;1.10;;
6667;SDS011;3370;47.712;9.082;2023-04-24T05:56:26;1.02;;;1.02;;
6667;SDS011;3370;47.712;9.082;2023-04-24T05:58:52;2.78;;;1.00;;
6667;SDS011;3370;47.712;9.082;2023-04-24T06:01:17;1.20;;;1.20;;
6667;SDS011;3370;47.712;9.082;2023-04-24T06:03:44;1.17;;;1.17;;
6667;SDS011;3370;47.712;9.082;2023-04-24T06:06:10;2.10;;;1.30;;
6667;SDS011;3370;47.712;9.082;2023-04-24T06:08:36;2.47;;;1.13;;
6667;SDS011;3370;47.712;9.082;2023-04-24T06:11:01;1.00;;;1.00;;
6667;SDS011;3370;47.712;9.082;2023-04-24T06:13:27;2.30;;;1.40;;
6667;SDS011;3370;47.712;9.082;2023-04-24T06:15:53;1.23;;;1.23;;
6667;SDS011;3370;47.712;9.082;2023-04-24T06:18:19;2.20;;;1.40;;
6667;SDS011;3370;47.712;9.082;2023-04-24T06:20:45;1.20;;;1.10;;
6667;SDS011;3370;47.712;9.082;2023-04-24T06:23:11;1.43;;;1.43;;
6667;SDS011;3370;47.712;9.082;2023-04-24T06:25:37;3.10;;;1.60;;
6667;SDS011;3370;47.712;9.082;2023-04-24T06:28:04;4.70;;;1.80;;
6667;SDS011;3370;47.712;9.082;2023-04-24T06:30:30;1.40;;;1.40;;
6667;SDS011;3370;47.712;9.082;2023-04-24T06:32:56;1.63;;;1.40;;
6667;SDS011;3370;47.712;9.082;2023-04-24T06:35:22;1.63;;;1.47;;
6667;SDS011;3370;47.712;9.082;2023-04-24T06:37:48;1.70;;;1.60;;
6667;SDS011;3370;47.712;9.082;2023-04-24T06:40:14;1.70;;;1.63;;
6667;SDS011;3370;47.712;9.082;2023-04-24T06:42:39;5.07;;;1.70;;
6667;SDS011;3370;47.712;9.082;2023-04-24T06:45:05;2.10;;;1.60;;
6667;SDS011;3370;47.712;9.082;2023-04-24T06:47:32;1.90;;;1.80;;
6667;SDS011;3370;47.712;9.082;2023-04-24T06:49:57;1.60;;;1.50;;
6667;SDS011;3370;47.712;9.082;2023-04-24T06:52:23;1.90;;;1.80;;
6667;SDS011;3370;47.712;9.082;2023-04-24T06:54:49;2.40;;;2.30;;
6667;SDS011;3370;47.712;9.082;2023-04-24T06:57:15;1.80;;;1.70;;
6667;SDS011;3370;47.712;9.082;2023-04-24T06:59:41;2.10;;;2.00;;
6667;SDS011;3370;47.712;9.082;2023-04-24T07:02:07;1.87;;;1.77;;
6667;SDS011;3370;47.712;9.082;2023-04-24T07:04:33;2.00;;;1.90;;
6667;SDS011;3370;47.712;9.082;2023-04-24T07:06:59;2.33;;;2.13;;
6667;SDS011;3370;47.712;9.082;2023-04-24T07:09:26;2.70;;;2.40;;
6667;SDS011;3370;47.712;9.082;2023-04-24T07:11:52;4.90;;;2.47;;
6667;SDS011;3370;47.712;9.082;2023-04-24T07:14:18;1.90;;;1.80;;
6667;SDS011;3370;47.712;9.082;2023-04-24T07:16:45;2.08;;;1.98;;
6667;SDS011;3370;47.712;9.082;2023-04-24T07:19:12;4.70;;;2.40;;
6667;SDS011;3370;47.712;9.082;2023-04-24T07:21:38;3.03;;;2.50;;
6667;SDS011;3370;47.712;9.082;2023-04-24T07:24:05;1.83;;;1.73;;
6667;SDS011;3370;47.712;9.082;2023-04-24T07:26:34;1.87;;;1.77;;
6667;SDS011;3370;47.712;9.082;2023-04-24T07:29:00;2.77;;;2.40;;
6667;SDS011;3370;47.712;9.082;2023-04-24T07:31:26;2.07;;;1.90;;
6667;SDS011;3370;47.712;9.082;2023-04-24T07:33:51;2.37;;;2.27;;
6667;SDS011;3370;47.712;9.082;2023-04-24T07:36:17;2.23;;;2.13;;
6667;SDS011;3370;47.712;9.082;2023-04-24T07:38:44;4.23;;;1.90;;
6667;SDS011;3370;47.712;9.082;2023-04-24T07:41:11;4.47;;;2.45;;
6667;SDS011;3370;47.712;9.082;2023-04-24T07:43:40;2.60;;;2.40;;
6667;SDS011;3370;47.712;9.082;2023-04-24T07:46:07;5.30;;;2.40;;
6667;SDS011;3370;47.712;9.082;2023-04-24T07:48:36;3.17;;;2.47;;
6667;SDS011;3370;47.712;9.082;2023-04-24T07:51:02;3.67;;;2.10;;
6667;SDS011;3370;47.712;9.082;2023-04-24T07:53:28;2.23;;;1.97;;
6667;SDS011;3370;47.712;9.082;2023-04-24T07:55:55;2.53;;;2.10;;
6667;SDS011;3370;47.712;9.082;2023-04-24T07:58:21;2.70;;;2.30;;
6667;SDS011;3370;47.712;9.082;2023-04-24T08:00:47;4.80;;;2.10;;
6667;SDS011;3370;47.712;9.082;2023-04-24T08:03:13;4.97;;;2.43;;
6667;SDS011;3370;47.712;9.082;2023-04-24T08:05:39;3.50;;;2.10;;
6667;SDS011;3370;47.712;9.082;2023-04-24T08:08:06;1.23;;;1.23;;
6667;SDS011;3370;47.712;9.082;2023-04-24T08:10:33;2.45;;;1.73;;
6667;SDS011;3370;47.712;9.082;2023-04-24T08:12:58;6.10;;;1.40;;
6667;SDS011;3370;47.712;9.082;2023-04-24T08:15:24;1.17;;;1.17;;
6667;SDS011;3370;47.712;9.082;2023-04-24T08:17:50;1.47;;;1.30;;
6667;SDS011;3370;47.712;9.082;2023-04-24T08:20:16;1.52;;;1.42;;
6667;SDS011;3370;47.712;9.082;2023-04-24T08:22:42;1.30;;;1.30;;
6667;SDS011;3370;47.712;9.082;2023-04-24T08:25:09;1.73;;;1.60;;
6667;SDS011;3370;47.712;9.082;2023-04-24T08:27:36;1.47;;;1.43;;
6667;SDS011;3370;47.712;9.082;2023-04-24T08:30:03;1.70;;;1.50;;
6667;SDS011;3370;47.712;9.082;2023-04-24T08:32:29;2.58;;;1.45;;
6667;SDS011;3370;47.712;9.082;2023-04-24T08:34:56;2.00;;;1.90;;
6667;SDS011;3370;47.712;9.082;2023-04-24T08:37:25;2.87;;;1.67;;
6667;SDS011;3370;47.712;9.082;2023-04-24T08:39:52;1.80;;;1.70;;
6667;SDS011;3370;47.712;9.082;2023-04-24T08:42:18;2.10;;;2.00;;
6667;SDS011;3370;47.712;9.082;2023-04-24T08:44:45;1.80;;;1.70;;
6667;SDS011;3370;47.712;9.082;2023-04-24T08:47:13;1.67;;;1.57;;
6667;SDS011;3370;47.712;9.082;2023-04-24T08:49:40;1.97;;;1.87;;
6667;SDS011;3370;47.712;9.082;2023-04-24T08:52:07;2.30;;;1.67;;
6667;SDS011;3370;47.712;9.082;2023-04-24T08:54:33;3.90;;;1.80;;
6667;SDS011;3370;47.712;9.082;2023-04-24T08:57:01;1.93;;;1.70;;
6667;SDS011;3370;47.712;9.082;2023-04-24T08:59:28;1.50;;;1.50;;
6667;SDS011;3370;47.712;9.082;2023-04-24T09:01:56;2.53;;;1.87;;
6667;SDS011;3370;47.712;9.082;2023-04-24T09:04:23;2.10;;;1.60;;
6667;SDS011;3370;47.712;9.082;2023-04-24T09:06:58;1.57;;;1.47;;
6667;SDS011;3370;47.712;9.082;2023-04-24T09:09:25;5.20;;;1.80;;
6667;SDS011;3370;47.712;9.082;2023-04-24T09:11:54;2.13;;;1.80;;
6667;SDS011;3370;47.712;9.082;2023-04-24T09:14:22;1.73;;;1.63;;
6667;SDS011;3370;47.712;9.082;2023-04-24T09:16:49;5.27;;;1.90;;
6667;SDS011;3370;47.712;9.082;2023-04-24T09:19:15;1.50;;;1.50;;
6667;SDS011;3370;47.712;9.082;2023-04-24T09:21:41;1.63;;;1.53;;
6667;SDS011;3370;47.712;9.082;2023-04-24T09:24:15;3.23;;;2.10;;
6667;SDS011;3370;47.712;9.082;2023-04-24T09:26:47;2.97;;;2.50;;
6667;SDS011;3370;47.712;9.082;2023-04-24T09:29:20;1.73;;;1.63;;
6667;SDS011;3370;47.712;9.082;2023-04-24T09:31:46;5.03;;;2.05;;
6667;SDS011;3370;47.712;9.082;2023-04-24T09:34:12;2.10;;;1.60;;
6667;SDS011;3370;47.712;9.082;2023-04-24T09:36:38;4.80;;;1.90;;
6667;SDS011;3370;47.712;9.082;2023-04-24T09:39:14;2.37;;;2.17;;
6667;SDS011;3370;47.712;9.082;2023-04-24T09:41:45;2.00;;;1.73;;
6667;SDS011;3370;47.712;9.082;2023-04-24T09:44:16;2.00;;;1.83;;
6667;SDS011;3370;47.712;9.082;2023-04-24T09:46:51;2.40;;;2.20;;
6667;SDS011;3370;47.712;9.082;2023-04-24T09:49:25;4.97;;;2.27;;
6667;SDS011;3370;47.712;9.082;2023-04-24T09:52:05;2.87;;;2.00;;
6667;SDS011;3370;47.712;9.082;2023-04-24T09:54:34;2.17;;;2.00;;
6667;SDS011;3370;47.712;9.082;2023-04-24T09:57:01;2.27;;;2.03;;
6667;SDS011;3370;47.712;9.082;2023-04-24T09:59:28;2.20;;;2.10;;
6667;SDS011;3370;47.712;9.082;2023-04-24T10:01:54;2.10;;;1.90;;
6667;SDS011;3370;47.712;9.082;2023-04-24T10:04:22;2.03;;;1.90;;
6667;SDS011;3370;47.712;9.082;2023-04-24T10:06:50;3.10;;;2.20;;
6667;SDS011;3370;47.712;9.082;2023-04-24T10:09:18;2.80;;;1.70;;
6667;SDS011;3370;47.712;9.082;2023-04-24T10:11:49;4.00;;;2.30;;
6667;SDS011;3370;47.712;9.082;2023-04-24T10:14:19;2.00;;;1.60;;
6667;SDS011;3370;47.712;9.082;2023-04-24T10:16:50;2.20;;;1.80;;
6667;SDS011;3370;47.712;9.082;2023-04-24T10:19:20;5.80;;;2.23;;
6667;SDS011;3370;47.712;9.082;2023-04-24T10:21:45;3.00;;;2.20;;
6667;SDS011;3370;47.712;9.082;2023-04-24T10:24:15;3.90;;;2.00;;
6667;SDS011;3370;47.712;9.082;2023-04-24T10:26:43;5.53;;;2.00;;
6667;SDS011;3370;47.712;9.082;2023-04-24T10:29:14;2.00;;;1.77;;
6667;SDS011;3370;47.712;9.082;2023-04-24T10:31:44;2.33;;;2.10;;
6667;SDS011;3370;47.712;9.082;2023-04-24T10:34:11;2.50;;;1.77;;
6667;SDS011;3370;47.712;9.082;2023-04-24T10:36:40;1.93;;;1.83;;
6667;SDS011;3370;47.712;9.082;2023-04-24T10:39:11;2.37;;;1.80;;
6667;SDS011;3370;47.712;9.082;2023-04-24T10:41:42;2.57;;;2.00;;
6667;SDS011;3370;47.712;9.082;2023-04-24T10:44:09;8.10;;;2.80;;
6667;SDS011;3370;47.712;9.082;2023-04-24T10:46:38;1.80;;;1.70;;
6667;SDS011;3370;47.712;9.082;2023-04-24T10:49:07;2.40;;;2.00;;
6667;SDS011;3370;47.712;9.082;2023-04-24T10:51:47;2.33;;;2.17;;
6667;SDS011;3370;47.712;9.082;2023-04-24T10:57:28;4.13;;;1.87;;
6667;SDS011;3370;47.712;9.082;2023-04-24T11:02:46;2.15;;;1.95;;
6667;SDS011;3370;47.712;9.082;2023-04-24T11:05:18;2.60;;;1.90;;
6667;SDS011;3370;47.712;9.082;2023-04-24T11:10:44;3.30;;;1.90;;
6667;SDS011;3370;47.712;9.082;2023-04-24T11:13:20;2.20;;;1.73;;
6667;SDS011;3370;47.712;9.082;2023-04-24T11:16:11;3.07;;;2.00;;
6667;SDS011;3370;47.712;9.082;2023-04-24T11:18:45;2.47;;;1.77;;
6667;SDS011;3370;47.712;9.082;2023-04-24T11:21:18;3.50;;;1.87;;
6667;SDS011;3370;47.712;9.082;2023-04-24T11:23:47;2.87;;;2.40;;
6667;SDS011;3370;47.712;9.082;2023-04-24T11:26:17;1.93;;;1.53;;
6667;SDS011;3370;47.712;9.082;2023-04-24T11:28:49;2.20;;;1.70;;
6667;SDS011;3370;47.712;9.082;2023-04-24T11:31:34;3.77;;;1.67;;
6667;SDS011;3370;47.712;9.082;2023-04-24T11:34:11;2.70;;;1.90;;
6667;SDS011;3370;47.712;9.082;2023-04-24T11:36:39;2.20;;;2.10;;
6667;SDS011;3370;47.712;9.082;2023-04-24T11:39:08;2.70;;;1.80;;
6667;SDS011;3370;47.712;9.082;2023-04-24T11:41:35;1.73;;;1.63;;
6667;SDS011;3370;47.712;9.082;2023-04-24T11:44:01;4.73;;;2.07;;
6667;SDS011;3370;47.712;9.082;2023-04-24T11:46:30;5.77;;;2.10;;
6667;SDS011;3370;47.712;9.082;2023-04-24T11:48:57;2.37;;;1.80;;
6667;SDS011;3370;47.712;9.082;2023-04-24T11:51:24;4.50;;;1.80;;
6667;SDS011;3370;47.712;9.082;2023-04-24T11:53:52;2.83;;;1.80;;
6667;SDS011;3370;47.712;9.082;2023-04-24T11:56:23;2.43;;;1.83;;
6667;SDS011;3370;47.712;9.082;2023-04-24T11:58:51;4.70;;;1.70;;
6667;SDS011;3370;47.712;9.082;2023-04-24T12:01:19;4.77;;;2.17;;
6667;SDS011;3370;47.712;9.082;2023-04-24T12:03:49;3.77;;;1.33;;
6667;SDS011;3370;47.712;9.082;2023-04-24T12:06:24;2.13;;;2.03;;
6667;SDS011;3370;47.712;9.082;2023-04-24T12:08:50;2.83;;;1.93;;
6667;SDS011;3370;47.712;9.082;2023-04-24T12:11:19;2.17;;;1.87;;
6667;SDS011;3370;47.712;9.082;2023-04-24T12:13:45;1.80;;;1.63;;
6667;SDS011;3370;47.712;9.082;2023-04-24T12:16:11;3.03;;;2.10;;
6667;SDS011;3370;47.712;9.082;2023-04-24T12:18:41;2.07;;;1.77;;
6667;SDS011;3370;47.712;9.082;2023-04-24T12:21:15;3.00;;;1.67;;
6667;SDS011;3370;47.712;9.082;2023-04-24T12:23:47;1.70;;;1.60;;
6667;SDS011;3370;47.712;9.082;2023-04-24T12:26:17;8.43;;;1.63;;
6667;SDS011;3370;47.712;9.082;2023-04-24T12:28:46;2.78;;;2.00;;
6667;SDS011;3370;47.712;9.082;2023-04-24T12:31:16;4.10;;;1.77;;
6667;SDS011;3370;47.712;9.082;2023-04-24T12:33:42;6.03;;;2.20;;
6667;SDS011;3370;47.712;9.082;2023-04-24T12:36:11;1.75;;;1.65;;
6667;SDS011;3370;47.712;9.082;2023-04-24T12:38:38;4.00;;;1.83;;
6667;SDS011;3370;47.712;9.082;2023-04-24T12:41:09;2.00;;;1.83;;
6667;SDS011;3370;47.712;9.082;2023-04-24T12:43:37;3.60;;;1.60;;
6667;SDS011;3370;47.712;9.082;2023-04-24T12:46:03;1.80;;;1.70;;
6667;SDS011;3370;47.712;9.082;2023-04-24T12:48:29;3.07;;;2.20;;
6667;SDS011;3370;47.712;9.082;2023-04-24T12:50:59;1.63;;;1.60;;
6667;SDS011;3370;47.712;9.082;2023-04-24T12:53:28;2.03;;;1.92;;
6667;SDS011;3370;47.712;9.082;2023-04-24T12:55:56;2.90;;;2.20;;
6667;SDS011;3370;47.712;9.082;2023-04-24T12:58:22;2.10;;;1.90;;
6667;SDS011;3370;47.712;9.082;2023-04-24T13:00:47;1.93;;;1.57;;
6667;SDS011;3370;47.712;9.082;2023-04-24T13:03:13;2.65;;;1.95;;
6667;SDS011;3370;47.712;9.082;2023-04-24T13:05:40;1.80;;;1.70;;
6667;SDS011;3370;47.712;9.082;2023-04-24T13:08:07;2.63;;;1.87;;
6667;SDS011;3370;47.712;9.082;2023-04-24T13:10:33;1.83;;;1.60;;
6667;SDS011;3370;47.712;9.082;2023-04-24T13:12:59;1.47;;;1.47;;
6667;SDS011;3370;47.712;9.082;2023-04-24T13:15:26;1.80;;;1.70;;
6667;SDS011;3370;47.712;9.082;2023-04-24T13:17:51;2.80;;;1.90;;
6667;SDS011;3370;47.712;9.082;2023-04-24T13:20:17;1.80;;;1.70;;
6667;SDS011;3370;47.712;9.082;2023-04-24T13:22:43;2.55;;;1.98;;
6667;SDS011;3370;47.712;9.082;2023-04-24T13:25:09;2.03;;;1.85;;
6667;SDS011;3370;47.712;9.082;2023-04-24T13:27:35;3.22;;;1.88;;
6667;SDS011;3370;47.712;9.082;2023-04-24T13:30:04;1.83;;;1.67;;
6667;SDS011;3370;47.712;9.082;2023-04-24T13:32:31;1.87;;;1.60;;
6667;SDS011;3370;47.712;9.082;2023-04-24T13:34:58;3.07;;;2.27;;
6667;SDS011;3370;47.712;9.082;2023-04-24T13:37:24;1.73;;;1.63;;
6667;SDS011;3370;47.712;9.082;2023-04-24T13:39:50;1.70;;;1.60;;
6667;SDS011;3370;47.712;9.082;2023-04-24T13:42:15;3.17;;;2.30;;
6667;SDS011;3370;47.712;9.082;2023-04-24T13:44:41;2.00;;;1.90;;
6667;SDS011;3370;47.712;9.082;2023-04-24T13:47:08;5.35;;;1.77;;
6667;SDS011;3370;47.712;9.082;2023-04-24T13:49:34;2.83;;;2.23;;
6667;SDS011;3370;47.712;9.082;2023-04-24T13:52:00;4.03;;;1.70;;
6667;SDS011;3370;47.712;9.082;2023-04-24T13:54:27;4.50;;;1.90;;
6667;SDS011;3370;47.712;9.082;2023-04-24T13:56:52;1.90;;;1.80;;
6667;SDS011;3370;47.712;9.082;2023-04-24T13:59:19;5.50;;;1.80;;
6667;SDS011;3370;47.712;9.082;2023-04-24T14:01:48;3.23;;;1.90;;
6667;SDS011;3370;47.712;9.082;2023-04-24T14:04:14;4.22;;;1.90;;
6667;SDS011;3370;47.712;9.082;2023-04-24T14:06:40;5.43;;;2.10;;
6667;SDS011;3370;47.712;9.082;2023-04-24T14:09:05;2.35;;;1.73;;
6667;SDS011;3370;47.712;9.082;2023-04-24T14:11:31;1.83;;;1.73;;
6667;SDS011;3370;47.712;9.082;2023-04-24T14:13:58;1.90;;;1.70;;
6667;SDS011;3370;47.712;9.082;2023-04-24T14:16:24;3.35;;;2.10;;
6667;SDS011;3370;47.712;9.082;2023-04-24T14:18:50;5.03;;;1.67;;
6667;SDS011;3370;47.712;9.082;2023-04-24T14:21:16;2.23;;;2.07;;
6667;SDS011;3370;47.712;9.082;2023-04-24T14:23:42;1.73;;;1.70;;
6667;SDS011;3370;47.712;9.082;2023-04-24T14:26:07;2.47;;;1.90;;
6667;SDS011;3370;47.712;9.082;2023-04-24T14:28:33;2.85;;;1.70;;
6667;SDS011;3370;47.712;9.082;2023-04-24T14:30:59;2.00;;;1.90;;
6667;SDS011;3370;47.712;9.082;2023-04-24T14:33:25;1.70;;;1.60;;
6667;SDS011;3370;47.712;9.082;2023-04-24T14:35:51;1.95;;;1.73;;
6667;SDS011;3370;47.712;9.082;2023-04-24T14:38:16;2.35;;;1.85;;
6667;SDS011;3370;47.712;9.082;2023-04-24T14:40:42;1.80;;;1.70;;
6667;SDS011;3370;47.712;9.082;2023-04-24T14:43:08;1.93;;;1.73;;
6667;SDS011;3370;47.712;9.082;2023-04-24T14:45:34;1.60;;;1.50;;
6667;SDS011;3370;47.712;9.082;2023-04-24T14:48:01;3.80;;;1.70;;
6667;SDS011;3370;47.712;9.082;2023-04-24T14:50:27;2.20;;;2.00;;
6667;SDS011;3370;47.712;9.082;2023-04-24T14:52:53;2.80;;;1.73;;
6667;SDS011;3370;47.712;9.082;2023-04-24T14:55:22;2.00;;;1.70;;
6667;SDS011;3370;47.712;9.082;2023-04-24T14:57:49;1.73;;;1.63;;
6667;SDS011;3370;47.712;9.082;2023-04-24T15:00:15;2.70;;;2.00;;
6667;SDS011;3370;47.712;9.082;2023-04-24T15:02:42;3.40;;;2.43;;
6667;SDS011;3370;47.712;9.082;2023-04-24T15:05:09;2.45;;;1.92;;
6667;SDS011;3370;47.712;9.082;2023-04-24T15:07:35;3.17;;;1.90;;
6667;SDS011;3370;47.712;9.082;2023-04-24T15:10:02;1.90;;;1.80;;
6667;SDS011;3370;47.712;9.082;2023-04-24T15:12:29;2.70;;;2.00;;
6667;SDS011;3370;47.712;9.082;2023-04-24T15:14:55;2.60;;;2.10;;
6667;SDS011;3370;47.712;9.082;2023-04-24T15:17:20;1.70;;;1.60;;
6667;SDS011;3370;47.712;9.082;2023-04-24T15:19:46;5.30;;;1.73;;
6667;SDS011;3370;47.712;9.082;2023-04-24T15:22:12;2.57;;;2.37;;